Time;durP1;ratioP1;P1;durP2;ratioP2;P2;SDS_P1;SDS_P2;PMS_P1;PMS_P2;Temp;Humidity;BMP_temperature;BMP_pressure;BME280_temperature;BME280_humidity;BME280_pressure;Samples;Min_cycle;Max_cycle;Signal;HPM_P1;HPM_P2
2023/11/08 00:01:10;;;;;;;26.00;12.20;;;10.20;80.70;;;;;;768386;182;27077;-82
2023/11/08 00:03:36;;;;;;;109.40;48.27;;;10.20;80.80;;;;;;766494;187;26570;-86
2023/11/08 00:06:03;;;;;;;44.40;20.70;;;10.30;80.80;;;;;;758239;187;26532;-85
2023/11/08 00:08:30;;;;;;;28.50;16.13;;;10.20;80.70;;;;;;767851;185;26470;-87
2023/11/08 00:10:56;;;;;;;30.87;16.03;;;10.20;80.60;;;;;;774457;181;28117;-83
2023/11/08 00:13:24;;;;;;;14.83;8.80;;;10.20;80.60;;;;;;769266;185;26542;-85
2023/11/08 00:15:50;;;;;;;9.07;5.67;;;10.30;80.40;;;;;;759949;187;26591;-86
2023/11/08 00:18:17;;;;;;;4.17;2.83;;;10.30;80.00;;;;;;766394;185;27079;-86
2023/11/08 00:20:45;;;;;;;3.47;2.20;;;10.30;80.10;;;;;;770101;185;26496;-84
2023/11/08 00:23:10;;;;;;;3.57;1.87;;;10.30;80.20;;;;;;767821;185;26502;-84
2023/11/08 00:25:37;;;;;;;11.60;7.13;;;10.30;80.10;;;;;;761033;187;26504;-86
2023/11/08 00:28:03;;;;;;;23.63;11.80;;;10.30;80.00;;;;;;762549;188;26528;-85
2023/11/08 00:30:30;;;;;;;14.43;9.30;;;10.30;80.10;;;;;;765842;185;26631;-85
2023/11/08 00:32:56;;;;;;;25.27;14.40;;;10.30;80.30;;;;;;769738;185;26553;-85
2023/11/08 00:35:24;;;;;;;27.03;17.03;;;10.30;80.30;;;;;;752766;187;26506;-89
2023/11/08 00:37:50;;;;;;;14.43;8.57;;;10.30;79.90;;;;;;764398;187;26491;-85
2023/11/08 00:40:16;;;;;;;8.97;5.30;;;10.30;79.80;;;;;;764229;187;27091;-85
2023/11/08 00:42:44;;;;;;;3.00;1.77;;;10.30;79.80;;;;;;753914;187;26557;-85
2023/11/08 00:45:10;;;;;;;3.57;1.90;;;10.30;80.00;;;;;;765480;185;26473;-85
2023/11/08 00:47:38;;;;;;;40.87;19.87;;;10.30;80.20;;;;;;770595;184;26484;-86
2023/11/08 00:50:06;;;;;;;19.53;9.87;;;10.30;79.70;;;;;;753552;188;26512;-85
2023/11/08 00:52:32;;;;;;;10.57;5.60;;;10.30;79.60;;;;;;766023;187;26485;-86
2023/11/08 00:55:00;;;;;;;5.03;2.20;;;10.30;79.60;;;;;;755383;189;26566;-86
2023/11/08 00:57:26;;;;;;;3.23;1.40;;;10.40;79.40;;;;;;767474;184;26582;-82
2023/11/08 01:00:08;;;;;;;3.10;1.63;;;10.40;79.10;;;;;;774571;172;26473;-85
2023/11/08 01:02:42;;;;;;;3.07;1.60;;;10.40;78.90;;;;;;792307;180;27007;-85
2023/11/08 01:05:21;;;;;;;3.67;1.80;;;10.40;79.00;;;;;;775958;185;27009;-84
2023/11/08 01:07:58;;;;;;;4.87;1.80;;;10.40;78.90;;;;;;771595;184;26495;-86
2023/11/08 01:10:31;;;;;;;4.70;1.90;;;10.40;79.00;;;;;;769868;185;26496;-86
2023/11/08 01:13:01;;;;;;;2.83;1.50;;;10.40;78.90;;;;;;775918;185;26438;-87
2023/11/08 01:15:30;;;;;;;3.50;1.87;;;10.40;78.70;;;;;;776334;182;26459;-88
2023/11/08 01:18:09;;;;;;;4.93;1.50;;;10.40;79.00;;;;;;778230;182;26499;-85
2023/11/08 01:20:36;;;;;;;2.60;1.40;;;10.40;78.90;;;;;;780448;183;27065;-84
2023/11/08 01:23:05;;;;;;;3.83;1.57;;;10.40;78.80;;;;;;775343;182;27003;-85
2023/11/08 01:25:36;;;;;;;4.20;1.87;;;10.40;79.00;;;;;;769396;183;27052;-85
2023/11/08 01:28:12;;;;;;;7.23;3.40;;;10.40;78.90;;;;;;769613;186;27051;-85
2023/11/08 01:31:05;;;;;;;12.10;7.07;;;10.40;79.40;;;;;;762078;188;26558;-85
2023/11/08 01:33:35;;;;;;;8.00;3.37;;;10.40;79.70;;;;;;766029;183;26999;-86
2023/11/08 01:36:06;;;;;;;8.80;2.33;;;10.40;79.70;;;;;;772647;185;27002;-85
2023/11/08 01:41:19;;;;;;;5.53;1.63;;;10.40;80.10;;;;;;772444;185;26454;-85
2023/11/08 01:43:51;;;;;;;4.33;1.70;;;10.40;80.10;;;;;;774033;182;26442;-85
2023/11/08 01:46:30;;;;;;;2.33;1.50;;;10.30;81.60;;;;;;764895;186;26482;-86
2023/11/08 01:49:02;;;;;;;4.93;1.87;;;10.20;82.90;;;;;;764949;187;26472;-85
2023/11/08 01:51:33;;;;;;;3.53;1.50;;;10.10;83.90;;;;;;765271;184;26484;-86
2023/11/08 01:53:59;;;;;;;6.00;1.43;;;10.00;84.00;;;;;;775396;182;26450;-86
2023/11/08 01:56:31;;;;;;;8.20;3.87;;;10.00;83.60;;;;;;772953;186;26489;-85
2023/11/08 01:59:17;;;;;;;25.70;13.07;;;10.00;83.60;;;;;;773367;184;27007;-85
2023/11/08 02:01:51;;;;;;;22.27;10.27;;;10.10;83.90;;;;;;770959;186;27168;-85
2023/11/08 02:04:27;;;;;;;20.30;10.53;;;10.00;83.50;;;;;;761965;188;26512;-81
2023/11/08 02:06:54;;;;;;;4.13;3.00;;;10.10;83.00;;;;;;765972;187;26543;-84
2023/11/08 02:09:33;;;;;;;5.10;2.50;;;10.10;83.20;;;;;;771870;184;26471;-85
2023/11/08 02:12:05;;;;;;;2.83;1.53;;;10.10;82.60;;;;;;768882;186;26535;-84
2023/11/08 02:14:34;;;;;;;2.50;1.60;;;10.20;82.50;;;;;;771750;185;28074;-86
2023/11/08 02:17:10;;;;;;;11.17;6.33;;;10.20;82.40;;;;;;763259;185;26483;-86
2023/11/08 02:19:42;;;;;;;16.87;9.10;;;10.20;82.20;;;;;;767198;186;26465;-85
2023/11/08 02:22:21;;;;;;;6.33;3.57;;;10.20;82.20;;;;;;771858;184;26467;-86
2023/11/08 02:24:50;;;;;;;16.80;8.00;;;10.20;81.70;;;;;;779199;183;26590;-86
2023/11/08 02:27:18;;;;;;;7.90;3.97;;;10.30;82.20;;;;;;781281;180;27058;-85
2023/11/08 02:29:55;;;;;;;7.33;1.80;;;10.30;81.60;;;;;;780955;181;26454;-85
2023/11/08 02:32:46;;;;;;;5.30;1.80;;;10.30;81.50;;;;;;776846;184;26439;-85
2023/11/08 02:35:20;;;;;;;4.70;1.60;;;10.30;81.30;;;;;;774190;186;26524;-87
2023/11/08 02:38:01;;;;;;;2.83;1.50;;;10.30;81.30;;;;;;776834;184;26454;-85
2023/11/08 02:40:34;;;;;;;3.53;1.77;;;10.30;81.10;;;;;;773692;182;26481;-85
2023/11/08 02:43:10;;;;;;;3.47;1.60;;;10.30;80.80;;;;;;773643;185;26411;-86
2023/11/08 02:45:39;;;;;;;15.33;6.53;;;10.30;80.60;;;;;;773833;184;26476;-82
2023/11/08 02:48:07;;;;;;;10.83;5.63;;;10.30;80.40;;;;;;776242;183;28913;-85
2023/11/08 02:50:36;;;;;;;8.83;2.87;;;10.30;80.70;;;;;;778997;184;26510;-85
2023/11/08 02:53:11;;;;;;;13.27;7.40;;;10.30;80.30;;;;;;778741;184;26971;-85
2023/11/08 02:55:41;;;;;;;8.87;3.83;;;10.30;80.40;;;;;;758331;186;26460;-86
2023/11/08 02:58:12;;;;;;;4.90;2.03;;;10.30;80.40;;;;;;765824;184;26511;-84
2023/11/08 03:00:40;;;;;;;3.80;1.80;;;10.30;80.20;;;;;;760930;188;27045;-84
2023/11/08 03:03:07;;;;;;;8.80;2.50;;;10.30;80.20;;;;;;762500;187;26494;-86
2023/11/08 03:05:38;;;;;;;9.43;4.07;;;10.30;80.10;;;;;;751185;188;27106;-85
2023/11/08 03:08:10;;;;;;;6.63;2.57;;;10.40;80.00;;;;;;767392;184;26461;-85
2023/11/08 03:10:46;;;;;;;3.53;1.97;;;10.40;80.60;;;;;;763156;188;26488;-84
2023/11/08 03:13:22;;;;;;;3.00;1.60;;;10.40;79.90;;;;;;760789;184;26505;-86
2023/11/08 03:15:52;;;;;;;3.27;2.00;;;10.40;79.70;;;;;;758268;190;26495;-86
2023/11/08 03:20:54;;;;;;;8.07;4.03;;;10.40;80.40;;;;;;767080;185;28144;-86
2023/11/08 03:23:22;;;;;;;24.53;12.23;;;10.40;79.90;;;;;;776618;185;26434;-85
2023/11/08 03:25:48;;;;;;;4.93;2.23;;;10.40;80.30;;;;;;774235;185;26428;-88
2023/11/08 03:28:17;;;;;;;4.20;1.80;;;10.40;80.10;;;;;;767108;187;27084;-86
2023/11/08 03:30:56;;;;;;;4.53;1.90;;;10.30;80.40;;;;;;758503;186;26488;-85
2023/11/08 03:33:33;;;;;;;5.00;1.70;;;10.20;80.60;;;;;;770436;184;27027;-85
2023/11/08 03:36:06;;;;;;;2.70;1.70;;;10.20;80.50;;;;;;769204;183;27014;-85
2023/11/08 03:38:53;;;;;;;;;;;;;;;;;;;;;
2023/11/08 03:41:21;;;;;;;3.33;1.67;;;10.20;80.50;;;;;;768942;186;26483;-86
2023/11/08 03:43:46;;;;;;;2.83;1.63;;;10.20;80.50;;;;;;768144;186;26461;-86
2023/11/08 03:46:13;;;;;;;5.63;1.87;;;10.20;80.50;;;;;;769826;183;26457;-86
2023/11/08 03:48:39;;;;;;;4.20;1.90;;;10.20;80.80;;;;;;767871;186;26469;-85
2023/11/08 03:51:06;;;;;;;4.57;2.00;;;10.10;80.50;;;;;;764117;183;27035;-85
2023/11/08 03:53:32;;;;;;;6.13;2.00;;;10.10;80.60;;;;;;763822;183;26488;-85
2023/11/08 03:55:59;;;;;;;7.13;1.87;;;10.00;80.70;;;;;;763700;183;27008;-85
2023/11/08 03:58:28;;;;;;;4.10;1.93;;;10.00;81.10;;;;;;768685;186;26519;-86
2023/11/08 04:01:00;;;;;;;3.93;1.90;;;9.90;82.40;;;;;;767652;187;26492;-83
2023/11/08 04:03:27;;;;;;;4.73;1.90;;;9.80;82.60;;;;;;767816;187;26511;-84
2023/11/08 04:05:54;;;;;;;4.27;1.70;;;9.80;82.80;;;;;;770737;186;26468;-87
2023/11/08 04:08:21;;;;;;;4.03;1.97;;;9.80;82.80;;;;;;767817;185;26569;-84
2023/11/08 04:10:47;;;;;;;2.67;1.93;;;9.90;82.80;;;;;;770220;186;26603;-84
2023/11/08 04:13:14;;;;;;;4.17;1.70;;;9.90;82.70;;;;;;767328;185;27116;-85
2023/11/08 04:15:41;;;;;;;2.70;1.57;;;9.90;82.50;;;;;;769353;186;26493;-87
2023/11/08 04:18:07;;;;;;;3.70;1.60;;;9.90;82.40;;;;;;769424;185;27072;-83
2023/11/08 04:20:34;;;;;;;2.90;1.73;;;9.90;82.10;;;;;;769670;186;26540;-85
2023/11/08 04:23:00;;;;;;;4.03;1.67;;;9.90;82.10;;;;;;781847;183;27053;-84
2023/11/08 04:25:27;;;;;;;4.53;1.83;;;9.90;82.10;;;;;;767857;186;26490;-84
2023/11/08 04:27:54;;;;;;;2.67;2.07;;;10.00;80.90;;;;;;765450;186;27080;-86
2023/11/08 04:30:21;;;;;;;5.33;1.70;;;10.00;81.50;;;;;;774723;184;26467;-85
2023/11/08 04:32:47;;;;;;;4.83;1.70;;;10.00;80.50;;;;;;772833;185;26486;-85
2023/11/08 04:35:38;;;;;;;3.93;1.70;;;10.00;80.40;;;;;;763075;187;26503;-84
2023/11/08 04:38:06;;;;;;;3.07;1.50;;;10.00;80.40;;;;;;767650;183;27090;-84
2023/11/08 04:40:32;;;;;;;3.77;1.60;;;10.00;80.40;;;;;;762147;188;28148;-85
2023/11/08 04:43:06;;;;;;;2.83;1.50;;;10.00;80.20;;;;;;774997;182;27047;-85
2023/11/08 04:45:33;;;;;;;4.37;1.60;;;9.90;81.60;;;;;;775231;183;26452;-81
2023/11/08 04:48:08;;;;;;;5.07;1.77;;;9.90;82.00;;;;;;770715;185;26527;-84
2023/11/08 04:50:35;;;;;;;2.97;1.70;;;9.80;82.30;;;;;;761888;184;27066;-85
2023/11/08 04:53:02;;;;;;;11.30;2.90;;;9.70;82.50;;;;;;766089;187;26490;-84
2023/11/08 04:55:28;;;;;;;5.23;1.90;;;9.70;82.80;;;;;;766167;187;27022;-84
2023/11/08 04:57:55;;;;;;;4.33;1.80;;;9.60;82.90;;;;;;766068;187;26490;-84
2023/11/08 05:00:21;;;;;;;6.40;2.23;;;9.60;83.30;;;;;;765957;187;27263;-85
2023/11/08 05:02:48;;;;;;;4.27;1.70;;;9.50;84.20;;;;;;765949;185;26516;-84
2023/11/08 05:05:15;;;;;;;5.87;2.13;;;9.50;83.50;;;;;;783356;183;27031;-85
2023/11/08 05:07:44;;;;;;;4.87;2.20;;;9.50;83.30;;;;;;774542;183;26476;-84
2023/11/08 05:10:10;;;;;;;6.47;2.10;;;9.60;83.50;;;;;;765660;187;26504;-86
2023/11/08 05:12:37;;;;;;;5.33;2.00;;;9.60;83.40;;;;;;761417;185;26498;-85
2023/11/08 05:15:06;;;;;;;5.57;1.83;;;9.50;83.30;;;;;;765677;188;26455;-84
2023/11/08 05:17:31;;;;;;;3.27;1.87;;;9.50;83.40;;;;;;757471;187;26521;-87
2023/11/08 05:19:57;;;;;;;5.40;2.13;;;9.50;83.70;;;;;;756468;189;26549;-86
2023/11/08 05:22:24;;;;;;;4.87;1.90;;;9.50;83.70;;;;;;759333;189;26447;-84
2023/11/08 05:24:50;;;;;;;3.97;1.80;;;9.40;83.90;;;;;;776016;184;27762;-84
2023/11/08 05:27:27;;;;;;;6.00;2.23;;;9.40;83.60;;;;;;778516;184;26447;-85
2023/11/08 05:29:59;;;;;;;3.53;1.80;;;9.40;83.90;;;;;;780404;184;27039;-84
2023/11/08 05:32:33;;;;;;;5.37;2.57;;;9.40;83.90;;;;;;777535;184;26445;-88
2023/11/08 05:35:12;;;;;;;6.90;2.37;;;9.40;84.60;;;;;;774132;185;26459;-87
2023/11/08 05:37:38;;;;;;;5.93;2.10;;;9.40;84.40;;;;;;773998;182;26458;-85
2023/11/08 05:43:11;;;;;;;5.43;2.13;;;9.60;84.00;;;;;;773253;184;26512;-86
2023/11/08 05:45:59;;;;;;;2.90;1.90;;;9.60;83.80;;;;;;768014;183;26516;-86
2023/11/08 05:48:30;;;;;;;4.57;1.90;;;9.60;83.50;;;;;;764363;184;26406;-84
2023/11/08 05:51:05;;;;;;;4.73;2.30;;;9.60;83.60;;;;;;777512;182;26531;-85
2023/11/08 05:53:37;;;;;;;4.13;1.93;;;9.60;83.80;;;;;;779127;183;26560;-85
2023/11/08 05:56:06;;;;;;;5.10;2.00;;;9.60;84.10;;;;;;778121;181;26471;-84
2023/11/08 05:58:38;;;;;;;7.27;2.13;;;9.70;84.00;;;;;;775787;182;27022;-85
2023/11/08 06:01:10;;;;;;;3.10;1.80;;;9.70;84.20;;;;;;780244;182;27002;-85
2023/11/08 06:03:41;;;;;;;6.30;2.50;;;9.80;83.50;;;;;;765787;186;26582;-84
2023/11/08 06:06:10;;;;;;;4.13;2.10;;;9.80;83.50;;;;;;763877;187;27024;-87
2023/11/08 06:08:37;;;;;;;5.70;1.60;;;9.80;83.50;;;;;;764566;187;26573;-85
2023/11/08 06:11:14;;;;;;;3.87;1.90;;;9.80;83.20;;;;;;765877;187;26477;-85
2023/11/08 06:13:39;;;;;;;3.53;1.80;;;9.80;83.40;;;;;;771535;185;26531;-87
2023/11/08 06:16:10;;;;;;;3.90;2.03;;;9.80;83.40;;;;;;770824;185;26466;-85
2023/11/08 06:18:46;;;;;;;4.50;1.90;;;9.80;83.40;;;;;;773257;184;26467;-87
2023/11/08 06:21:23;;;;;;;4.33;1.80;;;9.80;83.30;;;;;;772820;185;26496;-85
2023/11/08 06:23:50;;;;;;;3.83;1.73;;;9.80;83.80;;;;;;766775;186;26496;-88
2023/11/08 06:26:26;;;;;;;5.50;2.37;;;9.80;83.30;;;;;;763858;187;26615;-87
2023/11/08 06:28:52;;;;;;;5.23;2.07;;;9.70;83.70;;;;;;766243;187;27067;-84
2023/11/08 06:31:23;;;;;;;6.53;2.20;;;9.70;83.80;;;;;;768697;185;26590;-89
2023/11/08 06:33:56;;;;;;;3.27;1.90;;;9.70;84.00;;;;;;768421;185;26532;-80
2023/11/08 06:36:24;;;;;;;4.53;1.70;;;9.80;83.70;;;;;;764324;186;26476;-85
2023/11/08 06:38:54;;;;;;;6.60;2.10;;;9.80;83.40;;;;;;762760;186;27071;-84
2023/11/08 06:41:24;;;;;;;3.17;1.87;;;9.90;83.20;;;;;;777460;182;26494;-84
2023/11/08 06:43:58;;;;;;;7.57;2.13;;;9.90;83.20;;;;;;763040;186;26520;-84
2023/11/08 06:46:31;;;;;;;7.10;2.20;;;9.90;83.00;;;;;;761540;187;26492;-86
2023/11/08 06:49:07;;;;;;;10.60;2.57;;;9.90;82.90;;;;;;765607;187;26477;-84
2023/11/08 06:51:36;;;;;;;3.87;2.20;;;9.90;83.20;;;;;;778159;182;26475;-85
2023/11/08 06:54:04;;;;;;;6.97;2.57;;;9.90;83.00;;;;;;759977;187;26481;-88
2023/11/08 06:56:45;;;;;;;6.60;2.60;;;9.90;82.60;;;;;;768272;185;27115;-82
2023/11/08 06:59:15;;;;;;;7.77;2.13;;;9.90;82.50;;;;;;769458;186;26472;-88
2023/11/08 07:01:49;;;;;;;4.93;2.40;;;10.00;81.60;;;;;;777516;183;26482;-84
2023/11/08 07:04:20;;;;;;;6.43;2.37;;;10.00;81.40;;;;;;766178;186;27037;-85
2023/11/08 07:06:49;;;;;;;8.67;2.10;;;10.00;81.10;;;;;;762919;187;26552;-87
2023/11/08 07:09:24;;;;;;;6.63;2.47;;;10.10;81.00;;;;;;781109;181;26473;-86
2023/11/08 07:12:03;;;;;;;4.27;2.33;;;10.10;81.00;;;;;;773242;185;27017;-85
2023/11/08 07:14:43;;;;;;;7.70;2.73;;;10.10;80.70;;;;;;764923;185;26495;-85
2023/11/08 07:17:18;;;;;;;7.33;2.40;;;10.10;80.90;;;;;;768550;185;26462;-84
2023/11/08 07:25:15;;;;;;;6.10;2.23;;;10.20;79.70;;;;;;769053;185;26464;-85
2023/11/08 07:27:56;;;;;;;;;;;;;;;;;;;;;
2023/11/08 07:30:27;;;;;;;7.70;2.37;;;10.30;79.80;;;;;;762232;184;26558;-84
2023/11/08 07:32:52;;;;;;;8.87;2.33;;;10.40;79.20;;;;;;783655;183;26467;-85
2023/11/08 07:35:43;;;;;;;5.17;2.50;;;10.40;78.90;;;;;;778721;184;27044;-84
2023/11/08 07:41:06;;;;;;;7.47;2.47;;;10.50;78.70;;;;;;758896;188;26513;-84
2023/11/08 07:43:55;;;;;;;8.23;2.53;;;10.50;78.30;;;;;;749948;189;26553;-85
2023/11/08 07:46:37;;;;;;;6.10;3.13;;;10.60;78.60;;;;;;771126;186;26541;-88
2023/11/08 07:51:55;;;;;;;7.43;2.57;;;10.70;77.80;;;;;;767167;185;26563;-85
2023/11/08 07:54:34;;;;;;;8.07;2.40;;;10.80;77.30;;;;;;769832;186;27057;-84
2023/11/08 07:57:05;;;;;;;6.17;2.60;;;10.80;77.00;;;;;;771376;184;27105;-84
2023/11/08 07:59:34;;;;;;;5.43;2.10;;;10.80;76.90;;;;;;771212;185;26476;-84
2023/11/08 08:02:02;;;;;;;8.83;2.13;;;10.80;76.90;;;;;;770465;186;26515;-82
2023/11/08 08:04:45;;;;;;;9.07;2.23;;;10.80;76.90;;;;;;768502;185;26481;-87
2023/11/08 08:07:17;;;;;;;6.67;2.30;;;10.80;76.50;;;;;;767747;185;26532;-84
2023/11/08 08:29:27;;;;;;;5.53;2.20;;;10.80;76.50;;;;;;762928;188;26516;-90
2023/11/08 08:31:52;;;;;;;8.13;2.63;;;10.80;76.50;;;;;;773275;183;26474;-89
2023/11/08 08:34:44;;;;;;;9.00;2.67;;;10.80;76.20;;;;;;789820;179;26482;-82
2023/11/08 08:37:33;;;;;;;4.27;2.00;;;10.90;76.20;;;;;;767927;180;26639;-83
2023/11/08 08:40:00;;;;;;;6.43;2.37;;;10.80;76.50;;;;;;782665;180;26493;-83
2023/11/08 08:42:30;;;;;;;9.37;2.93;;;10.90;76.20;;;;;;780161;183;26454;-84
2023/11/08 08:45:08;;;;;;;7.13;2.47;;;11.00;76.40;;;;;;776304;182;26499;-79
2023/11/08 08:47:57;;;;;;;;;;;;;;;;;;;;;
2023/11/08 08:50:24;;;;;;;4.67;1.90;;;11.00;76.30;;;;;;773274;183;26471;-86
2023/11/08 08:52:54;;;;;;;7.17;2.07;;;11.10;76.00;;;;;;779551;183;26475;-83
2023/11/08 08:58:14;;;;;;;8.60;1.73;;;11.40;75.30;;;;;;778686;182;26602;-84
2023/11/08 09:03:38;;;;;;;9.57;2.13;;;11.50;74.20;;;;;;781215;181;26503;-87
2023/11/08 09:09:18;;;;;;;7.20;2.10;;;11.80;73.30;;;;;;792153;181;26451;-85
2023/11/08 09:11:47;;;;;;;5.57;2.13;;;11.90;72.50;;;;;;784837;180;26479;-87
2023/11/08 09:14:18;;;;;;;12.13;2.17;;;11.90;71.80;;;;;;778114;182;26467;-86
2023/11/08 09:27:53;;;;;;;3.33;2.00;;;12.60;69.30;;;;;;782457;182;26574;-87
2023/11/08 09:33:29;;;;;;;8.07;2.20;;;12.60;69.50;;;;;;792169;180;26511;-85
2023/11/08 09:36:38;;;;;;;6.77;3.10;;;12.70;68.70;;;;;;792698;178;26440;-86
2023/11/08 09:38:50;;;;;;;8.23;2.00;;;13.20;67.90;;;;;;791155;176;26473;-85
2023/11/08 09:41:17;;;;;;;7.50;3.17;;;13.20;65.30;;;;;;814267;171;27247;-87
2023/11/08 09:43:49;;;;;;;8.33;2.47;;;13.40;65.50;;;;;;789179;181;26458;-86
2023/11/08 09:46:27;;;;;;;15.53;8.43;;;13.50;65.70;;;;;;794710;179;27043;-86
2023/11/08 09:48:59;;;;;;;7.83;3.40;;;14.00;63.10;;;;;;792550;180;26454;-86
2023/11/08 09:51:26;;;;;;;7.10;2.90;;;15.10;60.90;;;;;;779878;184;26491;-87
2023/11/08 09:54:00;;;;;;;13.83;2.80;;;15.00;58.80;;;;;;780365;184;26494;-86
2023/11/08 09:56:41;;;;;;;8.23;2.70;;;14.90;59.00;;;;;;782071;183;26481;-86
2023/11/08 09:59:12;;;;;;;6.50;2.73;;;14.70;59.20;;;;;;769316;184;26494;-87
2023/11/08 10:01:41;;;;;;;6.60;2.30;;;14.60;59.40;;;;;;794598;174;26502;-86
2023/11/08 10:04:19;;;;;;;6.57;2.10;;;14.40;59.60;;;;;;779945;182;26984;-87
2023/11/08 10:06:47;;;;;;;5.17;2.13;;;13.90;61.40;;;;;;780490;183;26445;-88
2023/11/08 10:09:13;;;;;;;8.03;2.50;;;14.80;59.30;;;;;;776445;183;27004;-88
2023/11/08 10:11:58;;;;;;;6.83;3.20;;;14.90;57.70;;;;;;771593;183;26481;-87
2023/11/08 10:14:31;;;;;;;11.57;5.23;;;15.00;58.00;;;;;;791097;181;26454;-89
2023/11/08 10:17:04;;;;;;;5.87;2.30;;;14.80;58.00;;;;;;774554;185;26446;-87
2023/11/08 10:19:41;;;;;;;7.10;2.20;;;14.20;59.00;;;;;;759267;187;28875;-87
2023/11/08 10:25:26;;;;;;;4.87;2.13;;;13.90;59.70;;;;;;778033;184;26992;-87
2023/11/08 10:28:04;;;;;;;6.00;2.07;;;14.10;60.20;;;;;;757146;188;27057;-87
2023/11/08 10:30:48;;;;;;;10.80;5.27;;;14.50;59.60;;;;;;753788;188;26515;-87
2023/11/08 10:33:16;;;;;;;7.53;2.70;;;14.20;59.50;;;;;;771889;184;26483;-87
2023/11/08 10:35:43;;;;;;;8.67;2.80;;;14.20;59.20;;;;;;773427;183;27050;-88
2023/11/08 10:38:10;;;;;;;6.13;2.60;;;14.00;59.10;;;;;;772866;183;26442;-87
2023/11/08 10:40:37;;;;;;;8.97;3.43;;;13.80;59.80;;;;;;772785;186;26530;-87
2023/11/08 10:43:24;;;;;;;8.57;3.80;;;13.90;60.70;;;;;;774714;185;26473;-87
2023/11/08 10:45:50;;;;;;;8.33;4.83;;;13.80;60.20;;;;;;762779;186;26492;-89
2023/11/08 10:48:17;;;;;;;8.30;4.77;;;13.80;59.90;;;;;;781471;184;26446;-87
2023/11/08 10:50:43;;;;;;;7.40;2.43;;;13.80;59.30;;;;;;797809;180;26480;-87
2023/11/08 10:53:10;;;;;;;8.70;5.17;;;13.80;59.30;;;;;;788819;181;27043;-88
2023/11/08 10:55:41;;;;;;;5.90;2.33;;;13.70;58.40;;;;;;777271;184;26442;-87
2023/11/08 10:58:19;;;;;;;7.73;2.10;;;14.00;58.60;;;;;;771786;183;28110;-86
2023/11/08 11:00:49;;;;;;;6.73;2.47;;;14.10;58.20;;;;;;776053;185;26510;-86
2023/11/08 11:03:26;;;;;;;81.80;43.30;;;13.70;58.10;;;;;;781694;181;28344;-87
2023/11/08 11:06:05;;;;;;;72.67;38.23;;;13.50;59.20;;;;;;778505;181;26494;-87
2023/11/08 11:08:49;;;;;;;9.57;4.87;;;13.50;59.00;;;;;;775466;184;26449;-87
2023/11/08 11:11:33;;;;;;;9.07;3.50;;;13.50;59.00;;;;;;751863;188;26587;-87
2023/11/08 11:14:07;;;;;;;21.80;10.10;;;13.80;58.80;;;;;;766948;187;26501;-88
2023/11/08 11:16:35;;;;;;;42.40;23.77;;;14.10;57.60;;;;;;788922;180;26473;-86
2023/11/08 11:19:19;;;;;;;31.90;17.13;;;14.20;56.70;;;;;;758655;187;26438;-88
2023/11/08 11:22:10;;;;;;;6.93;3.17;;;14.00;57.60;;;;;;771674;178;26606;-87
2023/11/08 11:24:39;;;;;;;11.63;5.90;;;13.50;58.40;;;;;;740203;194;26582;-87
2023/11/08 11:33:05;;;;;;;6.43;3.23;;;13.60;58.60;;;;;;748503;177;26517;-89
2023/11/08 11:35:56;;;;;;;5.20;2.50;;;13.60;58.00;;;;;;787466;181;26480;-87
2023/11/08 11:38:25;;;;;;;37.17;19.63;;;13.40;58.80;;;;;;777220;182;26584;-86
2023/11/08 11:41:35;;;;;;;25.47;15.27;;;13.30;58.70;;;;;;807475;174;26457;-86
2023/11/08 11:44:02;;;;;;;8.10;4.70;;;13.30;58.70;;;;;;804856;174;26434;-86
2023/11/08 11:46:29;;;;;;;8.63;4.70;;;13.40;58.90;;;;;;783901;181;26436;-87
2023/11/08 11:49:03;;;;;;;5.43;2.60;;;14.10;58.20;;;;;;767200;184;26470;-86
2023/11/08 11:51:39;;;;;;;11.17;2.50;;;15.00;54.30;;;;;;806004;176;26453;-87
2023/11/08 11:54:10;;;;;;;7.83;3.80;;;14.40;54.80;;;;;;772692;184;26468;-87
2023/11/08 11:56:56;;;;;;;7.50;2.97;;;14.40;56.00;;;;;;805303;177;26462;-87
2023/11/08 11:59:50;;;;;;;31.93;16.97;;;14.40;55.90;;;;;;782346;180;26454;-86
2023/11/08 12:02:41;;;;;;;;;;;;;;;;;;;;;
2023/11/08 12:08:22;;;;;;;24.67;14.93;;;14.20;55.00;;;;;;768795;185;26502;-86
2023/11/08 12:13:50;;;;;;;6.60;3.20;;;14.20;55.40;;;;;;786383;181;26449;-87
2023/11/08 12:16:23;;;;;;;7.73;3.90;;;14.50;55.40;;;;;;770989;185;26521;-86
2023/11/08 12:21:57;;;;;;;5.23;2.10;;;14.50;54.70;;;;;;799087;177;26486;-87
2023/11/08 12:24:37;;;;;;;6.00;2.43;;;15.60;53.60;;;;;;783430;181;26468;-86
2023/11/08 12:27:03;;;;;;;4.60;2.40;;;15.60;52.70;;;;;;768646;185;27211;-88
2023/11/08 12:29:34;;;;;;;7.83;3.90;;;15.40;52.60;;;;;;800212;176;26996;-87
2023/11/08 12:32:01;;;;;;;25.97;12.53;;;16.10;50.40;;;;;;781579;181;26477;-88
2023/11/08 12:34:52;;;;;;;33.63;22.80;;;16.90;48.70;;;;;;782980;181;26453;-87
2023/11/08 12:37:19;;;;;;;4.67;2.00;;;16.80;49.00;;;;;;772349;185;26458;-86
2023/11/08 12:39:46;;;;;;;3.53;1.97;;;16.00;50.10;;;;;;806169;174;26418;-88
2023/11/08 12:42:14;;;;;;;12.77;3.20;;;15.70;51.30;;;;;;784649;180;26485;-87
2023/11/08 12:44:47;;;;;;;6.03;2.37;;;15.30;53.10;;;;;;789105;181;26484;-87
2023/11/08 12:47:21;;;;;;;7.47;3.27;;;14.60;54.30;;;;;;773905;184;26486;-87
2023/11/08 12:49:50;;;;;;;5.80;2.07;;;14.20;55.50;;;;;;787562;182;26458;-87
2023/11/08 12:55:23;;;;;;;11.40;6.40;;;13.80;56.50;;;;;;773813;185;26447;-87
2023/11/08 12:57:49;;;;;;;5.47;2.10;;;14.00;57.00;;;;;;810822;177;26421;-87
2023/11/08 13:00:29;;;;;;;95.70;49.93;;;14.00;56.40;;;;;;777898;185;26471;-86
2023/11/08 13:02:59;;;;;;;4.60;2.37;;;13.80;56.40;;;;;;809960;176;27070;-87
2023/11/08 13:05:27;;;;;;;32.03;17.70;;;13.60;57.00;;;;;;810889;177;26466;-89
2023/11/08 13:07:53;;;;;;;68.27;38.33;;;13.60;56.90;;;;;;805207;177;27029;-87
2023/11/08 13:10:27;;;;;;;35.60;21.70;;;13.50;56.90;;;;;;805312;174;26426;-87
2023/11/08 13:13:08;;;;;;;6.30;3.60;;;13.60;57.40;;;;;;805150;179;26494;-88
2023/11/08 13:16:13;;;;;;;;;;;;;;;;;;;;;
2023/11/08 13:19:16;;;;;;;;;;;;;;;;;;;;;
2023/11/08 13:49:59;;;;;;;;;;;;;;;;;;;;;
2023/11/08 13:58:09;;;;;;;5.03;2.53;;;12.70;58.80;;;;;;785111;182;26467;-87
2023/11/08 14:06:28;;;;;;;;;;;;;;;;;;;;;
2023/11/08 14:09:04;;;;;;;7.27;3.27;;;12.60;59.10;;;;;;778367;184;26584;-87
2023/11/08 14:11:47;;;;;;;7.87;4.97;;;12.60;58.90;;;;;;781685;174;26541;-86
2023/11/08 14:17:10;;;;;;;4.13;1.70;;;12.50;59.00;;;;;;773767;184;26455;-86
2023/11/08 14:19:56;;;;;;;;;;;;;;;;;;;;;
2023/11/08 14:22:52;;;;;;;8.57;1.77;;;12.40;59.20;;;;;;769271;185;27051;-86
2023/11/08 14:25:58;;;;;;;29.90;17.30;;;12.40;59.80;;;;;;769223;184;26528;-86
2023/11/08 14:28:30;;;;;;;27.83;14.07;;;12.40;59.50;;;;;;767450;185;26482;-89
2023/11/08 14:31:01;;;;;;;9.80;3.70;;;12.40;59.60;;;;;;767542;185;26538;-86
2023/11/08 14:33:48;;;;;;;3.80;2.13;;;12.50;59.70;;;;;;768416;185;26498;-87
2023/11/08 14:36:30;;;;;;;3.37;1.93;;;12.50;59.70;;;;;;766322;185;26479;-87
2023/11/08 14:39:04;;;;;;;6.13;2.70;;;12.50;59.80;;;;;;767124;186;26524;-86
2023/11/08 14:41:47;;;;;;;9.63;3.93;;;12.40;59.80;;;;;;773778;181;27107;-87
2023/11/08 14:47:29;;;;;;;6.20;2.60;;;12.40;59.80;;;;;;773837;184;26507;-87
2023/11/08 14:50:12;;;;;;;6.53;2.03;;;12.40;60.50;;;;;;763596;186;26540;-87
2023/11/08 14:52:56;;;;;;;3.13;2.00;;;12.40;61.00;;;;;;760366;187;26535;-89
2023/11/08 14:55:41;;;;;;;4.90;2.00;;;12.40;61.10;;;;;;770181;187;26628;-87
2023/11/08 15:17:51;;;;;;;8.93;2.33;;;12.20;63.30;;;;;;730496;174;26532;-87
2023/11/08 15:28:41;;;;;;;5.87;2.90;;;12.10;63.90;;;;;;761695;187;26489;-88
2023/11/08 15:31:08;;;;;;;7.23;2.20;;;12.10;64.60;;;;;;759677;187;27053;-88
2023/11/08 15:33:35;;;;;;;8.27;2.83;;;12.10;64.50;;;;;;766152;187;26535;-87
2023/11/08 15:36:01;;;;;;;5.97;2.27;;;12.10;64.60;;;;;;764858;187;26500;-88
2023/11/08 15:38:34;;;;;;;5.00;2.20;;;12.00;64.50;;;;;;760843;187;26494;-87
2023/11/08 15:43:56;;;;;;;4.93;2.50;;;12.00;65.70;;;;;;747686;177;26504;-83
2023/11/08 15:46:25;;;;;;;6.90;2.40;;;12.00;66.40;;;;;;790079;179;27012;-84
2023/11/08 15:54:27;;;;;;;3.73;2.40;;;11.80;69.80;;;;;;743116;192;27047;-86
2023/11/08 16:05:18;;;;;;;5.70;2.40;;;11.70;68.90;;;;;;780974;184;26447;-80
2023/11/08 16:07:44;;;;;;;4.40;2.17;;;11.70;69.10;;;;;;780508;183;27219;-85
2023/11/08 16:13:10;;;;;;;3.03;2.17;;;11.80;68.60;;;;;;766399;185;26496;-84
2023/11/08 16:15:38;;;;;;;5.57;2.23;;;11.80;68.30;;;;;;766349;186;26485;-86
2023/11/08 16:20:58;;;;;;;4.53;2.60;;;11.80;67.00;;;;;;759135;188;26569;-82
2023/11/08 16:23:36;;;;;;;9.87;3.93;;;11.90;67.60;;;;;;755794;186;26498;-86